Time;durP1;ratioP1;P1;durP2;ratioP2;P2;SDS_P1;SDS_P2;PMS_P1;PMS_P2;Temp;Humidity;BMP_temperature;BMP_pressure;BME280_temperature;BME280_humidity;BME280_pressure;Samples;Min_cycle;Max_cycle;Signal;HPM_P1;HPM_P2
2022/08/20 00:01:50;;;;;;;10.63;7.07;;;20.10;99.90;;;;;;8427838;28;20048;-76
2022/08/20 00:06:00;;;;;;;12.80;7.72;;;20.10;99.90;;;;;;8426991;28;20040;-76
2022/08/20 00:10:05;;;;;;;7.72;6.50;;;20.10;99.90;;;;;;8428719;28;20043;-78
2022/08/20 00:14:09;;;;;;;9.02;6.78;;;20.10;99.90;;;;;;8417847;28;20404;-74
2022/08/20 00:18:12;;;;;;;9.35;7.25;;;20.10;99.90;;;;;;8424522;28;20056;-76
2022/08/20 00:22:14;;;;;;;8.25;6.93;;;20.00;99.90;;;;;;8408272;28;20086;-76
2022/08/20 00:26:17;;;;;;;9.95;6.97;;;20.10;99.90;;;;;;8417594;28;20402;-78
2022/08/20 00:30:21;;;;;;;8.43;6.90;;;20.00;99.90;;;;;;8419834;28;20059;-79
2022/08/20 00:34:24;;;;;;;8.15;6.63;;;20.00;99.90;;;;;;8417697;28;20064;-78
2022/08/20 00:38:26;;;;;;;10.52;7.13;;;20.00;99.90;;;;;;8417793;28;20079;-78
2022/08/20 00:42:28;;;;;;;9.95;6.97;;;20.00;99.90;;;;;;8411657;28;20036;-78
2022/08/20 00:46:33;;;;;;;7.10;6.10;;;20.00;99.90;;;;;;8421639;28;20051;-78
2022/08/20 00:50:38;;;;;;;9.73;6.13;;;20.00;99.90;;;;;;8423003;28;20040;-76
2022/08/20 00:54:44;;;;;;;8.32;6.35;;;19.90;99.90;;;;;;8424064;28;20044;-76
2022/08/20 00:58:47;;;;;;;7.10;6.10;;;19.90;99.90;;;;;;8422724;28;20056;-77
2022/08/20 01:02:50;;;;;;;8.90;5.60;;;19.90;99.90;;;;;;8398827;28;20053;-79
2022/08/20 01:06:54;;;;;;;7.70;5.57;;;19.90;99.90;;;;;;8434963;28;20044;-75
2022/08/20 01:11:08;;;;;;;7.03;5.60;;;19.90;99.90;;;;;;8421801;28;20048;-77
2022/08/20 01:15:14;;;;;;;8.07;5.15;;;19.90;99.90;;;;;;8411170;28;20143;-76
2022/08/20 01:19:19;;;;;;;7.97;5.00;;;19.80;99.90;;;;;;8410015;28;20059;-76
2022/08/20 01:23:28;;;;;;;6.80;5.57;;;19.80;99.90;;;;;;8423143;28;20044;-78
2022/08/20 01:27:33;;;;;;;6.07;4.65;;;19.80;99.90;;;;;;8412808;28;20501;-76
2022/08/20 01:31:39;;;;;;;6.28;4.85;;;19.80;99.90;;;;;;8419247;28;20481;-78
2022/08/20 01:35:43;;;;;;;8.20;4.95;;;19.80;99.90;;;;;;8415273;28;20044;-79
2022/08/20 01:39:46;;;;;;;7.47;4.68;;;19.80;99.90;;;;;;8422353;28;20516;-77
2022/08/20 01:43:55;;;;;;;6.28;4.65;;;19.80;99.90;;;;;;8413871;28;20402;-78
2022/08/20 01:47:58;;;;;;;7.40;4.35;;;19.80;99.90;;;;;;8414993;28;20055;-79
2022/08/20 01:52:06;;;;;;;5.82;4.20;;;19.80;99.90;;;;;;8422002;28;20127;-76
2022/08/20 01:56:12;;;;;;;7.72;4.47;;;19.80;99.90;;;;;;8416560;28;20494;-78
2022/08/20 02:00:21;;;;;;;7.75;4.00;;;19.80;99.90;;;;;;8422688;28;20040;-77
2022/08/20 02:04:24;;;;;;;8.13;4.35;;;19.80;99.90;;;;;;8419770;28;20061;-79
2022/08/20 02:08:26;;;;;;;6.20;4.22;;;19.80;99.90;;;;;;8407997;28;20061;-76
2022/08/20 02:12:28;;;;;;;5.53;4.10;;;19.70;99.90;;;;;;8421811;28;20040;-78
2022/08/20 02:16:35;;;;;;;6.55;4.00;;;19.70;99.90;;;;;;8400325;28;20048;-78
2022/08/20 02:20:39;;;;;;;5.70;3.65;;;19.70;99.90;;;;;;8419250;28;20438;-78
2022/08/20 02:24:41;;;;;;;5.95;4.10;;;19.70;99.90;;;;;;8418801;28;20063;-79
2022/08/20 02:28:44;;;;;;;6.75;3.90;;;19.70;99.90;;;;;;8417142;28;20089;-79
2022/08/20 02:32:47;;;;;;;5.85;4.00;;;19.70;99.90;;;;;;8419002;28;20051;-77
2022/08/20 02:36:49;;;;;;;5.53;3.60;;;19.60;99.90;;;;;;8412184;28;20048;-79
2022/08/20 02:40:52;;;;;;;5.78;3.78;;;19.60;99.90;;;;;;8414926;28;20047;-76
2022/08/20 02:44:56;;;;;;;5.18;3.75;;;19.60;99.90;;;;;;8417141;28;20051;-76
2022/08/20 02:49:00;;;;;;;6.97;4.10;;;19.60;99.90;;;;;;8420731;28;20043;-77
2022/08/20 02:53:02;;;;;;;7.85;3.90;;;19.50;99.90;;;;;;8411944;28;20471;-78
2022/08/20 02:57:12;;;;;;;6.70;3.70;;;19.50;99.90;;;;;;8412645;28;20044;-78
2022/08/20 03:01:17;;;;;;;7.43;4.10;;;19.50;99.90;;;;;;8407817;28;20387;-76
2022/08/20 03:05:20;;;;;;;6.50;4.18;;;19.40;99.90;;;;;;8413584;28;20052;-76
2022/08/20 03:09:23;;;;;;;6.60;3.95;;;19.40;99.90;;;;;;8420129;28;20052;-79
2022/08/20 03:13:26;;;;;;;5.55;4.20;;;19.40;99.90;;;;;;8418770;28;20479;-77
2022/08/20 03:17:28;;;;;;;6.40;4.07;;;19.40;99.90;;;;;;8420077;28;20079;-77
2022/08/20 03:21:31;;;;;;;7.20;4.13;;;19.30;99.90;;;;;;8412380;28;20044;-78
2022/08/20 03:25:34;;;;;;;6.65;4.47;;;19.40;99.90;;;;;;8419831;28;20398;-77
2022/08/20 03:29:36;;;;;;;7.18;4.60;;;19.30;99.90;;;;;;8412763;28;20048;-78
2022/08/20 03:33:39;;;;;;;6.25;4.32;;;19.30;99.90;;;;;;8419983;28;20040;-76
2022/08/20 03:37:42;;;;;;;6.65;4.25;;;19.30;99.90;;;;;;8410786;28;20477;-76
2022/08/20 03:41:44;;;;;;;6.88;4.80;;;19.20;99.90;;;;;;8414562;28;20037;-77
2022/08/20 03:45:47;;;;;;;8.18;4.18;;;19.20;99.90;;;;;;8407211;28;20059;-78
2022/08/20 03:49:49;;;;;;;6.57;4.57;;;19.20;99.90;;;;;;8414724;28;20083;-75
2022/08/20 03:53:52;;;;;;;5.45;4.47;;;19.10;99.90;;;;;;8417934;28;20048;-77
2022/08/20 03:57:57;;;;;;;7.13;4.57;;;19.10;99.90;;;;;;8406150;28;20040;-77
2022/08/20 04:01:59;;;;;;;7.93;4.68;;;19.10;99.90;;;;;;8424197;28;20055;-78
2022/08/20 04:06:02;;;;;;;7.55;5.28;;;19.20;99.90;;;;;;8423790;28;20055;-76
2022/08/20 04:10:11;;;;;;;6.63;4.90;;;19.10;99.90;;;;;;8418991;28;20047;-77
2022/08/20 04:14:13;;;;;;;6.38;4.45;;;19.20;99.90;;;;;;8419108;28;20417;-77
2022/08/20 04:18:19;;;;;;;6.90;5.03;;;19.20;99.90;;;;;;8418650;28;20044;-77
2022/08/20 04:22:21;;;;;;;6.45;4.70;;;19.10;99.90;;;;;;8418355;28;20063;-76
2022/08/20 04:26:25;;;;;;;9.57;5.07;;;19.10;99.90;;;;;;8418831;28;20101;-75
2022/08/20 04:30:28;;;;;;;8.00;5.10;;;19.20;99.90;;;;;;8424941;28;20062;-78
2022/08/20 04:34:30;;;;;;;7.18;5.10;;;19.20;99.90;;;;;;8423381;28;20041;-76
2022/08/20 04:38:33;;;;;;;8.13;4.88;;;19.20;99.90;;;;;;8408898;28;20410;-77
2022/08/20 04:42:38;;;;;;;6.38;5.20;;;19.20;99.90;;;;;;8424583;28;20041;-79
2022/08/20 04:46:40;;;;;;;7.82;5.32;;;19.20;99.90;;;;;;8424571;28;20044;-78
2022/08/20 04:50:45;;;;;;;6.60;4.65;;;19.20;99.90;;;;;;8412623;28;20044;-78
2022/08/20 04:54:48;;;;;;;6.05;4.82;;;19.20;99.90;;;;;;8422366;28;20048;-77
2022/08/20 04:58:53;;;;;;;8.15;5.70;;;19.20;99.90;;;;;;8425168;28;20401;-78
2022/08/20 05:02:55;;;;;;;7.55;5.15;;;19.30;99.90;;;;;;8416505;28;20059;-75
2022/08/20 05:06:57;;;;;;;9.00;5.05;;;19.30;99.90;;;;;;8413172;28;20040;-76
2022/08/20 05:11:00;;;;;;;8.77;5.78;;;19.20;99.90;;;;;;8411127;28;20489;-79
2022/08/20 05:15:05;;;;;;;7.15;5.35;;;19.20;99.90;;;;;;8400054;28;20044;-80
2022/08/20 05:19:10;;;;;;;8.88;5.82;;;19.30;99.90;;;;;;8413645;28;20041;-77
2022/08/20 05:23:14;;;;;;;8.32;5.03;;;19.30;99.90;;;;;;8407208;28;20041;-77
2022/08/20 05:27:18;;;;;;;8.35;5.30;;;19.30;99.90;;;;;;8411013;28;20052;-78
2022/08/20 05:31:22;;;;;;;11.38;5.25;;;19.40;99.90;;;;;;8410337;28;20053;-75
2022/08/20 05:35:24;;;;;;;7.15;5.32;;;19.40;99.90;;;;;;8418029;28;20045;-77
2022/08/20 05:39:26;;;;;;;6.28;5.18;;;19.40;99.90;;;;;;8412961;28;20067;-77
2022/08/20 05:43:28;;;;;;;7.50;5.43;;;19.40;99.90;;;;;;8419348;28;20147;-79
2022/08/20 05:47:32;;;;;;;7.65;5.40;;;19.40;99.90;;;;;;8395373;28;20044;-78
2022/08/20 05:51:35;;;;;;;7.45;4.97;;;19.40;99.90;;;;;;8417526;28;20040;-76
2022/08/20 05:55:38;;;;;;;7.43;5.43;;;19.50;99.90;;;;;;8418923;28;20044;-80
2022/08/20 05:59:40;;;;;;;7.22;5.40;;;19.50;99.90;;;;;;8413661;28;20051;-78
2022/08/20 06:08:05;;;;;;;7.07;5.40;;;19.50;99.90;;;;;;8419199;28;20102;-76
2022/08/20 06:12:09;;;;;;;7.30;5.55;;;19.50;99.90;;;;;;8410786;28;20063;-75
2022/08/20 06:16:11;;;;;;;8.27;5.32;;;19.50;99.90;;;;;;8411112;28;20055;-78
2022/08/20 06:20:14;;;;;;;8.27;5.57;;;19.50;99.90;;;;;;8400923;28;20052;-78
2022/08/20 06:24:16;;;;;;;7.70;5.80;;;19.60;99.90;;;;;;8403681;28;20131;-78
2022/08/20 06:28:19;;;;;;;8.95;5.90;;;19.60;99.90;;;;;;8401471;28;20044;-78
2022/08/20 06:32:23;;;;;;;7.78;5.70;;;19.60;99.90;;;;;;8407829;28;20044;-76
2022/08/20 06:36:26;;;;;;;9.40;5.38;;;19.70;99.90;;;;;;8401298;28;20463;-74
2022/08/20 06:40:29;;;;;;;8.25;5.15;;;19.80;99.90;;;;;;8396752;28;20055;-75
2022/08/20 06:44:31;;;;;;;7.47;5.38;;;19.90;99.90;;;;;;8400847;28;20545;-75
2022/08/20 06:48:34;;;;;;;6.97;5.28;;;20.00;99.90;;;;;;8409019;28;20048;-73
2022/08/20 06:52:38;;;;;;;8.48;5.78;;;20.00;99.90;;;;;;8408335;28;20044;-75
2022/08/20 06:56:40;;;;;;;7.78;5.70;;;20.00;99.90;;;;;;8417352;28;20070;-75
2022/08/20 07:00:44;;;;;;;8.35;5.28;;;20.10;99.90;;;;;;8407317;28;20051;-75
2022/08/20 07:04:46;;;;;;;7.95;5.50;;;20.10;99.90;;;;;;8401046;28;20041;-75
2022/08/20 07:08:50;;;;;;;9.38;5.85;;;20.20;99.90;;;;;;8406841;28;20095;-74
2022/08/20 07:12:52;;;;;;;7.82;6.00;;;20.30;99.90;;;;;;8404516;28;20036;-76
2022/08/20 07:16:54;;;;;;;6.70;5.07;;;20.30;99.90;;;;;;8418427;28;20051;-75
2022/08/20 07:20:57;;;;;;;6.88;5.50;;;20.40;99.90;;;;;;8408054;28;20051;-76
2022/08/20 07:25:01;;;;;;;9.20;5.50;;;20.50;99.90;;;;;;8401204;28;20040;-75
2022/08/20 07:29:03;;;;;;;8.00;5.40;;;20.50;99.90;;;;;;8412917;28;20068;-78
2022/08/20 07:33:05;;;;;;;8.07;5.93;;;20.50;99.90;;;;;;8417404;28;20059;-76
2022/08/20 07:37:07;;;;;;;7.88;5.75;;;20.50;99.90;;;;;;8422390;28;20071;-76
2022/08/20 07:41:12;;;;;;;7.68;5.35;;;20.50;99.90;;;;;;8410625;28;20400;-76
2022/08/20 07:45:17;;;;;;;9.32;5.65;;;20.60;99.90;;;;;;8395402;28;20124;-76
2022/08/20 07:49:19;;;;;;;8.82;5.72;;;20.60;99.90;;;;;;8410747;28;20477;-73
2022/08/20 07:53:22;;;;;;;7.20;6.00;;;20.70;99.90;;;;;;8419847;28;20503;-75
2022/08/20 07:57:26;;;;;;;8.43;5.90;;;20.80;99.90;;;;;;8410698;28;20049;-76
2022/08/20 08:01:34;;;;;;;8.98;5.65;;;20.90;99.90;;;;;;8410993;28;20991;-76
2022/08/20 08:05:39;;;;;;;7.07;5.10;;;20.90;99.90;;;;;;8402851;28;20063;-74
2022/08/20 08:09:42;;;;;;;8.77;5.40;;;21.00;99.90;;;;;;8410633;28;20043;-78
2022/08/20 08:13:47;;;;;;;7.55;5.18;;;21.10;99.90;;;;;;8414284;28;20071;-78
2022/08/20 08:17:52;;;;;;;7.75;5.30;;;21.20;99.90;;;;;;8416317;28;20052;-76
2022/08/20 08:21:56;;;;;;;9.13;5.63;;;21.30;99.90;;;;;;8419676;28;20056;-76
2022/08/20 08:25:58;;;;;;;8.23;5.03;;;21.40;99.90;;;;;;8413551;28;20764;-75
2022/08/20 08:30:01;;;;;;;6.78;4.95;;;21.50;99.90;;;;;;8420224;28;20040;-78
2022/08/20 08:34:04;;;;;;;8.27;4.60;;;21.60;99.90;;;;;;8417217;28;20040;-75
2022/08/20 08:38:06;;;;;;;8.55;4.38;;;21.60;99.90;;;;;;8413155;28;20055;-77
2022/08/20 08:42:24;;;;;;;7.30;4.38;;;21.60;99.90;;;;;;8406588;28;20041;-77
2022/08/20 08:46:40;;;;;;;7.00;4.40;;;21.70;99.90;;;;;;8393580;28;20048;-77
2022/08/20 08:50:45;;;;;;;5.90;4.22;;;21.70;99.90;;;;;;8411216;28;20083;-76
2022/08/20 08:54:51;;;;;;;6.80;4.88;;;21.70;99.90;;;;;;8409764;28;20048;-75
2022/08/20 08:58:54;;;;;;;6.38;4.47;;;21.80;99.90;;;;;;8397669;28;20044;-77
2022/08/20 09:03:03;;;;;;;5.28;4.00;;;21.90;99.90;;;;;;8405651;28;20056;-76
2022/08/20 09:07:11;;;;;;;6.82;4.15;;;22.00;99.90;;;;;;8407704;28;20388;-75
2022/08/20 09:11:13;;;;;;;5.65;3.92;;;22.10;99.90;;;;;;8393098;28;20056;-75
2022/08/20 09:15:16;;;;;;;4.95;4.07;;;22.20;99.90;;;;;;8409763;28;20044;-75
2022/08/20 09:19:19;;;;;;;6.80;4.03;;;22.10;99.90;;;;;;8437464;28;20053;-76
2022/08/20 09:23:21;;;;;;;6.13;4.30;;;22.20;99.90;;;;;;8425369;28;20064;-75
2022/08/20 09:27:23;;;;;;;5.90;4.15;;;22.20;99.90;;;;;;8430329;28;20049;-76
2022/08/20 09:31:26;;;;;;;5.88;4.15;;;22.20;99.90;;;;;;8443747;28;20052;-75
2022/08/20 09:35:29;;;;;;;7.75;4.40;;;22.30;99.90;;;;;;8429891;28;20045;-74
2022/08/20 09:39:32;;;;;;;5.75;4.40;;;22.40;99.90;;;;;;8384765;28;20052;-77
2022/08/20 09:43:34;;;;;;;7.45;4.40;;;22.60;99.90;;;;;;8402598;28;20049;-78
2022/08/20 09:47:36;;;;;;;6.35;4.47;;;22.80;99.90;;;;;;8386398;28;20056;-77
2022/08/20 09:51:39;;;;;;;6.45;4.60;;;22.90;99.90;;;;;;8378110;28;20402;-76
2022/08/20 09:55:46;;;;;;;6.47;4.53;;;23.10;99.90;;;;;;8427019;28;20044;-76
2022/08/20 09:59:54;;;;;;;8.20;4.50;;;23.10;99.90;;;;;;8433471;28;20055;-78
2022/08/20 10:03:56;;;;;;;7.00;4.18;;;23.20;99.90;;;;;;8432962;28;20052;-77
2022/08/20 10:08:02;;;;;;;5.55;4.03;;;23.20;99.90;;;;;;8433173;28;20421;-77
2022/08/20 10:12:04;;;;;;;6.70;4.90;;;23.30;99.90;;;;;;8433259;28;20052;-78
2022/08/20 10:16:07;;;;;;;6.20;4.10;;;23.20;99.90;;;;;;8432744;28;20055;-75
2022/08/20 10:20:13;;;;;;;5.57;3.97;;;23.40;99.90;;;;;;8432603;28;20052;-77
2022/08/20 10:24:16;;;;;;;5.38;4.03;;;23.50;99.90;;;;;;8432748;28;20048;-79
2022/08/20 10:28:18;;;;;;;6.32;3.40;;;23.40;99.90;;;;;;8434155;28;20490;-77
2022/08/20 10:32:20;;;;;;;5.80;2.22;;;23.40;99.90;;;;;;8414707;28;20044;-78
2022/08/20 10:36:23;;;;;;;3.65;2.17;;;23.20;99.90;;;;;;8420749;28;20051;-79
2022/08/20 10:40:26;;;;;;;11.10;4.25;;;22.90;99.90;;;;;;8432112;28;20052;-80
2022/08/20 10:44:28;;;;;;;6.20;2.40;;;22.30;99.90;;;;;;8429477;28;20052;-79
2022/08/20 10:48:30;;;;;;;2.30;1.10;;;21.10;99.90;;;;;;8417591;28;20041;-79
2022/08/20 10:52:34;;;;;;;3.28;1.30;;;21.30;99.90;;;;;;8412732;28;20044;-79
2022/08/20 10:56:38;;;;;;;4.15;1.65;;;21.40;99.90;;;;;;8413859;28;20398;-79
2022/08/20 11:00:41;;;;;;;5.68;1.98;;;21.40;99.90;;;;;;8417425;28;20047;-80
2022/08/20 11:04:44;;;;;;;3.95;1.80;;;21.40;99.90;;;;;;8420109;28;20056;-79
2022/08/20 11:08:46;;;;;;;5.80;1.90;;;21.30;99.90;;;;;;8415166;28;20047;-78
2022/08/20 11:12:49;;;;;;;14.77;9.00;;;21.10;99.90;;;;;;8394211;28;20048;-81
2022/08/20 11:16:51;;;;;;;5.20;2.30;;;21.00;99.90;;;;;;8387897;28;20410;-78
2022/08/20 11:20:54;;;;;;;5.05;2.00;;;20.80;99.90;;;;;;8389000;28;20106;-78
2022/08/20 11:24:56;;;;;;;6.05;2.33;;;20.70;99.90;;;;;;8399292;28;20120;-78
2022/08/20 11:28:59;;;;;;;5.13;3.08;;;20.80;99.90;;;;;;8404384;28;20101;-79
2022/08/20 11:33:04;;;;;;;4.18;2.45;;;20.60;99.90;;;;;;8411591;28;20120;-78
2022/08/20 11:37:06;;;;;;;5.75;3.03;;;20.40;99.90;;;;;;8406042;28;20056;-77
2022/08/20 11:41:08;;;;;;;5.45;2.60;;;20.40;99.90;;;;;;8396280;28;20048;-80
2022/08/20 11:45:12;;;;;;;5.13;2.80;;;20.40;99.90;;;;;;8407558;28;20055;-79
2022/08/20 11:49:14;;;;;;;5.35;2.60;;;20.40;99.90;;;;;;8398960;28;20040;-77
2022/08/20 11:53:16;;;;;;;5.45;2.67;;;20.50;99.90;;;;;;8413697;28;20039;-77
2022/08/20 11:57:21;;;;;;;4.07;2.00;;;20.50;99.90;;;;;;8406291;28;20055;-79
2022/08/20 12:01:25;;;;;;;4.82;2.58;;;20.60;99.90;;;;;;8401095;28;20087;-79
2022/08/20 12:05:28;;;;;;;4.65;2.40;;;20.60;99.90;;;;;;8416082;28;20056;-79
2022/08/20 12:09:30;;;;;;;5.03;2.65;;;20.60;99.90;;;;;;8406340;28;20072;-79
2022/08/20 12:13:34;;;;;;;6.55;2.75;;;20.50;99.90;;;;;;8412236;28;20056;-79
2022/08/20 12:17:38;;;;;;;5.03;2.67;;;20.60;99.90;;;;;;8410932;28;20509;-79
2022/08/20 12:21:41;;;;;;;6.05;2.70;;;20.60;99.90;;;;;;8413580;28;20056;-79
2022/08/20 12:25:43;;;;;;;5.43;2.60;;;20.70;99.90;;;;;;8412007;28;20398;-79
2022/08/20 12:29:51;;;;;;;5.38;2.42;;;20.70;99.90;;;;;;8411963;28;20056;-77
2022/08/20 12:33:54;;;;;;;5.03;2.50;;;20.80;99.90;;;;;;8409202;28;20495;-78
2022/08/20 12:37:56;;;;;;;5.68;2.63;;;20.90;99.90;;;;;;8421569;28;20040;-75
2022/08/20 12:41:58;;;;;;;3.63;2.33;;;21.00;99.90;;;;;;8419177;28;20043;-77
2022/08/20 12:46:01;;;;;;;3.60;1.98;;;21.00;99.90;;;;;;8402372;28;20095;-77
2022/08/20 12:50:08;;;;;;;3.58;2.08;;;21.10;99.90;;;;;;8419143;28;20044;-78
2022/08/20 12:54:10;;;;;;;3.42;2.05;;;21.20;99.90;;;;;;8418111;28;20059;-78
2022/08/20 12:58:12;;;;;;;6.03;2.03;;;21.30;99.90;;;;;;8418902;28;20402;-77
2022/08/20 13:02:16;;;;;;;11.55;7.35;;;21.40;99.90;;;;;;8387813;28;20418;-79
2022/08/20 13:06:19;;;;;;;4.72;2.53;;;21.50;99.90;;;;;;8405795;28;20135;-77
2022/08/20 13:10:25;;;;;;;3.90;2.00;;;21.70;99.90;;;;;;8412818;28;20049;-75
2022/08/20 13:14:27;;;;;;;4.97;1.88;;;21.80;99.90;;;;;;8418321;28;20048;-78
2022/08/20 13:18:29;;;;;;;4.95;1.85;;;22.00;99.90;;;;;;8398415;28;20041;-77
2022/08/20 13:22:33;;;;;;;3.40;1.60;;;22.30;99.90;;;;;;8412909;28;20049;-76
2022/08/20 13:26:35;;;;;;;2.95;1.65;;;22.40;99.90;;;;;;8411578;28;20044;-77
2022/08/20 13:30:39;;;;;;;4.55;1.80;;;22.60;99.90;;;;;;8399718;28;20048;-79
2022/08/20 13:34:42;;;;;;;3.00;1.50;;;22.80;99.90;;;;;;8414490;28;20406;-77
2022/08/20 13:38:45;;;;;;;3.05;1.40;;;23.00;99.90;;;;;;8417656;28;20043;-77
2022/08/20 13:42:47;;;;;;;3.00;1.50;;;23.10;99.90;;;;;;8404932;28;20040;-79
2022/08/20 13:46:49;;;;;;;2.70;1.50;;;23.30;99.90;;;;;;8411387;28;20405;-77
2022/08/20 13:50:51;;;;;;;5.30;1.88;;;23.20;99.90;;;;;;8415056;28;20051;-76
2022/08/20 13:54:55;;;;;;;4.05;1.98;;;23.00;99.90;;;;;;8405610;28;20501;-77
2022/08/20 13:58:57;;;;;;;3.55;1.73;;;22.60;99.90;;;;;;8423265;28;20051;-77
2022/08/20 14:02:59;;;;;;;5.75;2.30;;;22.50;99.90;;;;;;8420851;28;20101;-77
2022/08/20 14:07:11;;;;;;;6.18;3.13;;;22.60;99.90;;;;;;8412492;28;20045;-77
2022/08/20 14:11:15;;;;;;;5.22;2.28;;;22.30;99.90;;;;;;8403473;28;20052;-78
2022/08/20 14:15:18;;;;;;;6.65;2.80;;;22.60;99.90;;;;;;8401710;28;20142;-78
2022/08/20 14:19:20;;;;;;;5.15;2.60;;;22.90;99.90;;;;;;8416263;28;20048;-79
2022/08/20 14:23:22;;;;;;;5.13;2.17;;;23.30;99.90;;;;;;8408545;28;20060;-78
2022/08/20 14:27:26;;;;;;;4.57;1.70;;;23.60;99.90;;;;;;8395929;28;20045;-78
2022/08/20 14:31:28;;;;;;;3.28;1.30;;;24.30;99.90;;;;;;8402353;28;20040;-76
2022/08/20 14:35:30;;;;;;;2.65;1.27;;;24.60;99.90;;;;;;8405273;28;20717;-77
2022/08/20 14:39:33;;;;;;;2.40;1.20;;;25.10;99.90;;;;;;8408619;28;20047;-77
2022/08/20 14:43:36;;;;;;;2.88;1.10;;;25.40;99.90;;;;;;8406430;28;20048;-80
2022/08/20 14:47:42;;;;;;;3.05;1.33;;;25.80;99.90;;;;;;8413349;28;20052;-78
2022/08/20 14:51:44;;;;;;;2.50;1.10;;;26.10;99.90;;;;;;8405979;28;20398;-77
2022/08/20 14:55:46;;;;;;;2.88;1.33;;;26.30;99.90;;;;;;8400603;28;20040;-76
2022/08/20 14:59:52;;;;;;;2.65;1.10;;;26.40;99.90;;;;;;8414670;28;20044;-78
2022/08/20 15:03:54;;;;;;;2.30;1.10;;;26.20;99.90;;;;;;8402808;28;20075;-77
2022/08/20 15:07:57;;;;;;;2.33;1.10;;;25.90;99.90;;;;;;8407892;28;20051;-76
2022/08/20 15:11:59;;;;;;;2.70;0.95;;;25.70;99.90;;;;;;8409911;28;20044;-78
2022/08/20 15:16:04;;;;;;;2.50;1.27;;;25.50;99.90;;;;;;8408361;28;20044;-77
2022/08/20 15:20:10;;;;;;;2.58;1.40;;;25.40;99.90;;;;;;8401943;28;20544;-77
2022/08/20 15:24:12;;;;;;;8.27;5.82;;;25.30;99.90;;;;;;8406293;28;20082;-77
2022/08/20 15:28:15;;;;;;;3.50;1.80;;;25.10;99.90;;;;;;8407604;28;20052;-78
2022/08/20 15:32:18;;;;;;;2.67;1.40;;;25.10;99.90;;;;;;8404845;28;20486;-80
2022/08/20 15:36:21;;;;;;;2.80;1.40;;;25.20;99.90;;;;;;8402648;28;20637;-78
2022/08/20 15:40:25;;;;;;;2.47;1.10;;;25.40;99.90;;;;;;8404243;28;20114;-78
2022/08/20 15:44:27;;;;;;;3.08;1.20;;;25.90;99.90;;;;;;8400959;28;20056;-75
2022/08/20 15:48:36;;;;;;;3.63;1.23;;;27.00;99.90;;;;;;8408418;28;20063;-76
2022/08/20 15:52:42;;;;;;;2.95;1.20;;;27.80;99.00;;;;;;8416143;28;20048;-77
2022/08/20 15:56:57;;;;;;;2.38;1.00;;;28.40;95.90;;;;;;8420850;28;20047;-78
2022/08/20 16:01:07;;;;;;;2.65;1.00;;;29.00;95.50;;;;;;8416173;28;20546;-77
2022/08/20 16:05:24;;;;;;;2.00;1.00;;;29.50;93.70;;;;;;8422365;28;20066;-76
2022/08/20 16:09:47;;;;;;;2.35;0.93;;;29.90;93.10;;;;;;8393631;28;20040;-78
2022/08/20 16:13:53;;;;;;;2.53;1.17;;;30.40;91.60;;;;;;8410289;28;20051;-77
2022/08/20 16:18:05;;;;;;;2.50;1.08;;;30.90;90.40;;;;;;8416185;28;20383;-74
2022/08/20 16:22:14;;;;;;;3.20;1.00;;;31.30;89.00;;;;;;8406393;28;20060;-75
2022/08/20 16:27:01;;;;;;;1.47;0.80;;;31.70;86.70;;;;;;8401702;28;20486;-78
2022/08/20 16:31:08;;;;;;;2.50;0.80;;;32.10;82.30;;;;;;8410346;28;20375;-75
2022/08/20 16:35:29;;;;;;;2.05;0.88;;;32.50;82.00;;;;;;8412836;28;20048;-77
2022/08/20 16:39:40;;;;;;;2.60;1.20;;;32.70;80.90;;;;;;8415428;28;20051;-78
2022/08/20 16:43:51;;;;;;;2.45;1.20;;;32.80;78.80;;;;;;8415892;28;20044;-75
2022/08/20 16:47:59;;;;;;;2.60;1.10;;;33.10;79.50;;;;;;8404429;28;20083;-75
2022/08/20 16:52:01;;;;;;;2.05;0.90;;;33.40;76.40;;;;;;8412589;28;20051;-77
2022/08/20 16:56:06;;;;;;;1.77;0.80;;;33.60;74.60;;;;;;8411041;28;20118;-78
2022/08/20 17:00:14;;;;;;;2.35;0.98;;;33.60;72.30;;;;;;8410248;28;20051;-76
2022/08/20 17:04:22;;;;;;;11.55;9.13;;;33.50;70.90;;;;;;8380851;28;20056;-76
2022/08/20 17:08:29;;;;;;;5.97;4.27;;;33.40;71.80;;;;;;8399136;28;20056;-75
2022/08/20 17:12:33;;;;;;;3.22;1.65;;;33.40;69.90;;;;;;8408234;28;20329;-78
2022/08/20 17:16:44;;;;;;;3.28;0.90;;;33.20;72.40;;;;;;8404578;28;20059;-77
2022/08/20 17:20:46;;;;;;;3.47;1.00;;;32.90;70.50;;;;;;8405573;28;20494;-77
2022/08/20 17:24:49;;;;;;;1.80;0.90;;;32.60;70.90;;;;;;8402034;28;20048;-77
2022/08/20 17:28:55;;;;;;;2.17;1.00;;;32.60;70.90;;;;;;8401569;28;20400;-77
2022/08/20 17:33:01;;;;;;;1.73;0.90;;;32.50;70.20;;;;;;8400148;28;20044;-74
2022/08/20 17:37:08;;;;;;;3.00;1.20;;;32.40;69.90;;;;;;8408019;28;20134;-78
2022/08/20 17:41:20;;;;;;;1.90;0.80;;;32.30;71.30;;;;;;8385368;28;20134;-77
2022/08/20 17:45:30;;;;;;;1.70;0.80;;;32.00;71.60;;;;;;8405356;28;20049;-78
2022/08/20 17:49:37;;;;;;;2.22;0.90;;;31.70;72.30;;;;;;8397069;28;20052;-77
2022/08/20 17:53:43;;;;;;;5.43;1.40;;;31.50;73.80;;;;;;8415256;28;20093;-77
2022/08/20 17:57:49;;;;;;;1.73;0.80;;;31.30;73.80;;;;;;8409113;28;20047;-77
2022/08/20 18:01:53;;;;;;;2.95;0.90;;;31.00;75.00;;;;;;8413337;28;20090;-77
2022/08/20 18:06:03;;;;;;;1.60;0.77;;;30.50;76.30;;;;;;8406487;28;20052;-75
2022/08/20 18:10:11;;;;;;;2.45;1.05;;;30.10;77.00;;;;;;8377100;28;20063;-77
2022/08/20 18:14:40;;;;;;;3.72;0.95;;;29.70;79.10;;;;;;8397993;28;20057;-76
2022/08/20 18:18:53;;;;;;;1.93;0.90;;;29.20;81.90;;;;;;8410489;28;20048;-78
2022/08/20 18:23:02;;;;;;;3.63;1.17;;;28.70;82.50;;;;;;8410841;28;20497;-76
2022/08/20 18:27:11;;;;;;;3.88;1.05;;;28.00;86.80;;;;;;8403278;28;20097;-78
2022/08/20 18:31:28;;;;;;;4.53;1.10;;;27.50;87.70;;;;;;8390939;28;20040;-75
2022/08/20 18:35:38;;;;;;;2.25;0.90;;;27.10;89.30;;;;;;8410134;28;20049;-76
2022/08/20 18:39:44;;;;;;;3.08;0.98;;;26.80;85.50;;;;;;8396278;28;20052;-78
2022/08/20 18:43:46;;;;;;;2.85;1.05;;;26.60;88.40;;;;;;8409543;28;20052;-81
2022/08/20 18:47:48;;;;;;;14.05;10.35;;;26.30;89.40;;;;;;8411785;28;20044;-78
2022/08/20 18:51:52;;;;;;;11.48;8.07;;;26.10;90.80;;;;;;8409108;28;20052;-77
2022/08/20 18:56:04;;;;;;;5.90;2.55;;;25.80;89.30;;;;;;8410409;28;20509;-76
2022/08/20 19:00:13;;;;;;;4.70;1.42;;;25.60;91.20;;;;;;8399474;28;20044;-75
2022/08/20 19:04:24;;;;;;;2.85;1.40;;;25.40;91.30;;;;;;8399586;28;20540;-73
2022/08/20 19:08:42;;;;;;;4.22;1.30;;;25.20;90.60;;;;;;8399287;28;20143;-75
2022/08/20 19:13:39;;;;;;;3.03;1.50;;;25.00;91.20;;;;;;8409426;28;20084;-78
2022/08/20 19:17:54;;;;;;;3.03;1.40;;;24.80;92.80;;;;;;8400929;28;20047;-75
2022/08/20 19:21:57;;;;;;;3.80;1.40;;;24.60;92.80;;;;;;8407014;28;20503;-74
2022/08/20 19:26:06;;;;;;;2.95;1.40;;;24.40;93.70;;;;;;8409124;28;20450;-73
2022/08/20 19:30:10;;;;;;;4.15;1.40;;;24.30;93.10;;;;;;8417047;28;20051;-75
2022/08/20 19:34:15;;;;;;;3.55;1.60;;;24.20;92.90;;;;;;8421522;28;20062;-73
2022/08/20 19:38:18;;;;;;;6.63;3.60;;;23.90;92.40;;;;;;8397686;28;20059;-76
2022/08/20 19:42:25;;;;;;;13.60;7.80;;;23.80;93.00;;;;;;8417690;28;20063;-76
2022/08/20 19:46:33;;;;;;;4.05;2.25;;;23.60;93.30;;;;;;8420548;28;20067;-75
2022/08/20 19:50:43;;;;;;;4.50;1.90;;;23.50;92.70;;;;;;8411001;28;20581;-75
2022/08/20 19:54:51;;;;;;;4.93;1.60;;;23.40;93.30;;;;;;8408758;28;20052;-76
2022/08/20 19:59:06;;;;;;;3.75;1.67;;;23.20;93.60;;;;;;8408824;28;20044;-75
2022/08/20 20:03:09;;;;;;;2.90;1.40;;;23.10;93.20;;;;;;8406809;28;20064;-79
2022/08/20 20:07:19;;;;;;;4.30;1.40;;;23.00;93.40;;;;;;8415924;28;20606;-77
2022/08/20 20:11:29;;;;;;;4.60;1.40;;;22.90;94.00;;;;;;8401990;28;20092;-76
2022/08/20 20:15:32;;;;;;;5.75;1.70;;;22.70;94.50;;;;;;8409465;28;20044;-76
2022/08/20 20:19:45;;;;;;;4.30;1.40;;;22.60;94.90;;;;;;8408061;28;20146;-76
2022/08/20 20:23:54;;;;;;;4.57;1.40;;;22.50;95.50;;;;;;8419983;28;20048;-77
2022/08/20 20:28:06;;;;;;;3.65;1.30;;;22.40;95.70;;;;;;8410730;28;20051;-76
2022/08/20 20:32:19;;;;;;;3.58;1.33;;;22.30;96.30;;;;;;8413159;28;20755;-78
2022/08/20 20:36:35;;;;;;;4.53;1.42;;;22.20;96.60;;;;;;8415424;28;20044;-78
2022/08/20 20:40:47;;;;;;;4.35;1.92;;;22.10;96.60;;;;;;8412998;28;20407;-78
2022/08/20 20:44:49;;;;;;;3.47;1.45;;;22.00;96.60;;;;;;8405024;28;20052;-77
2022/08/20 20:48:58;;;;;;;5.82;1.50;;;22.00;96.60;;;;;;8413157;28;20374;-78
2022/08/20 20:53:01;;;;;;;2.80;1.52;;;21.90;96.80;;;;;;8414669;28;20043;-77
2022/08/20 20:57:06;;;;;;;4.45;1.50;;;21.90;96.80;;;;;;8421264;28;20508;-77
2022/08/20 21:01:08;;;;;;;3.80;1.55;;;21.80;96.90;;;;;;8415909;28;20044;-78
2022/08/20 21:05:15;;;;;;;4.15;1.67;;;21.70;96.90;;;;;;8423850;28;20052;-78
2022/08/20 21:09:17;;;;;;;3.90;1.85;;;21.70;97.10;;;;;;8408602;28;20051;-78
2022/08/20 21:13:19;;;;;;;4.93;1.98;;;21.60;97.10;;;;;;8421502;28;20044;-77
2022/08/20 21:17:23;;;;;;;3.35;1.50;;;21.60;97.10;;;;;;8423117;28;20048;-77